Time;durP1;ratioP1;P1;durP2;ratioP2;P2;SDS_P1;SDS_P2;PMS_P1;PMS_P2;Temp;Humidity;BMP_temperature;BMP_pressure;BME280_temperature;BME280_humidity;BME280_pressure;Samples;Min_cycle;Max_cycle;Signal;HPM_P1;HPM_P2
2021/06/18 00:01:32;;;;;;;;;;;22.40;65.10;;;;;;4976048;28;20334;-64
2021/06/18 00:03:57;;;;;;;;;;;22.30;65.30;;;;;;4992591;28;20374;-63
2021/06/18 00:06:23;;;;;;;;;;;22.30;65.60;;;;;;4993222;28;20021;-64
2021/06/18 00:08:48;;;;;;;;;;;22.20;65.90;;;;;;4992825;28;19918;-63
2021/06/18 00:11:14;;;;;;;;;;;22.10;66.20;;;;;;4992538;28;19968;-63
2021/06/18 00:13:40;;;;;;;;;;;22.10;66.60;;;;;;4991845;28;19921;-63
2021/06/18 00:16:05;;;;;;;;;;;22.10;66.90;;;;;;4958931;28;19957;-63
2021/06/18 00:18:31;;;;;;;;;;;22.10;67.00;;;;;;4992741;28;19925;-64
2021/06/18 00:20:56;;;;;;;;;;;22.00;67.20;;;;;;4992846;28;19917;-63
2021/06/18 00:23:22;;;;;;;;;;;21.90;67.30;;;;;;4974998;28;19918;-63
2021/06/18 00:25:47;;;;;;;;;;;21.90;67.60;;;;;;4991565;28;19922;-63
2021/06/18 00:28:13;;;;;;;;;;;21.90;67.80;;;;;;4992498;28;19917;-63
2021/06/18 00:30:39;;;;;;;;;;;21.80;68.00;;;;;;4974963;28;19917;-63
2021/06/18 00:33:05;;;;;;;;;;;21.80;68.30;;;;;;4992389;28;19940;-63
2021/06/18 00:35:31;;;;;;;;;;;21.80;68.40;;;;;;4974941;28;19922;-63
2021/06/18 00:37:57;;;;;;;;;;;21.70;68.60;;;;;;4992377;28;19918;-63
2021/06/18 00:40:22;;;;;;;;;;;21.70;68.80;;;;;;4992595;28;20294;-63
2021/06/18 00:42:48;;;;;;;;;;;21.60;68.90;;;;;;4991824;28;20268;-63
2021/06/18 00:45:13;;;;;;;;;;;21.60;69.10;;;;;;4992511;28;20012;-63
2021/06/18 00:47:45;;;;;;;;;;;21.50;69.60;;;;;;4991972;28;19968;-63
2021/06/18 00:50:11;;;;;;;;;;;21.50;69.90;;;;;;4974672;28;19938;-63
2021/06/18 00:52:36;;;;;;;;;;;21.40;70.20;;;;;;4991262;28;19949;-63
2021/06/18 00:55:02;;;;;;;;;;;21.40;70.30;;;;;;4991967;28;20381;-63
2021/06/18 00:57:27;;;;;;;;;;;21.40;70.50;;;;;;4991989;28;19969;-63
2021/06/18 00:59:53;;;;;;;;;;;21.30;70.60;;;;;;4990989;28;19917;-63
2021/06/18 01:02:18;;;;;;;;;;;21.30;70.80;;;;;;4990632;28;19918;-63
2021/06/18 01:04:44;;;;;;;;;;;21.30;71.10;;;;;;4992342;28;19969;-63
2021/06/18 01:07:23;;;;;;;;;;;21.20;71.20;;;;;;4990285;28;20029;-63
2021/06/18 01:09:59;;;;;;;;;;;21.10;71.30;;;;;;4992334;28;19917;-63
2021/06/18 01:12:25;;;;;;;;;;;21.10;71.70;;;;;;4991615;28;19917;-63
2021/06/18 01:14:58;;;;;;;;;;;21.00;72.00;;;;;;4992182;28;19953;-63
2021/06/18 01:17:28;;;;;;;;;;;21.00;72.30;;;;;;4974198;28;19917;-63
2021/06/18 01:19:53;;;;;;;;;;;21.00;72.60;;;;;;4992146;28;20448;-62
2021/06/18 01:22:21;;;;;;;;;;;20.90;72.80;;;;;;4991419;28;19917;-63
2021/06/18 01:25:00;;;;;;;;;;;20.90;73.10;;;;;;4991649;28;19918;-63
2021/06/18 01:27:31;;;;;;;;;;;20.90;73.30;;;;;;4974240;28;19921;-63
2021/06/18 01:30:00;;;;;;;;;;;20.80;73.40;;;;;;4991780;28;19918;-63
2021/06/18 01:32:28;;;;;;;;;;;20.80;73.50;;;;;;4990541;28;19925;-63
2021/06/18 01:34:55;;;;;;;;;;;20.80;73.60;;;;;;4974181;28;19922;-63
2021/06/18 01:37:23;;;;;;;;;;;20.80;73.80;;;;;;4991742;28;19941;-63
2021/06/18 01:39:49;;;;;;;;;;;20.70;73.80;;;;;;4991971;28;19925;-63
2021/06/18 01:42:15;;;;;;;;;;;20.70;74.00;;;;;;4990233;28;20302;-63
2021/06/18 01:44:42;;;;;;;;;;;20.70;74.20;;;;;;4991993;28;19929;-62
2021/06/18 01:47:08;;;;;;;;;;;20.60;74.40;;;;;;4991005;28;19928;-63
2021/06/18 01:49:35;;;;;;;;;;;20.60;74.50;;;;;;4991889;28;19918;-63
2021/06/18 01:52:02;;;;;;;;;;;20.50;74.70;;;;;;4974147;28;19926;-63
2021/06/18 01:54:28;;;;;;;;;;;20.50;75.10;;;;;;4990136;28;19922;-63
2021/06/18 01:56:58;;;;;;;;;;;20.40;75.20;;;;;;4991467;28;19917;-63
2021/06/18 01:59:24;;;;;;;;;;;20.40;75.50;;;;;;4990127;28;19924;-66
2021/06/18 02:01:50;;;;;;;;;;;20.40;75.60;;;;;;4991777;28;19918;-62
2021/06/18 02:04:16;;;;;;;;;;;20.40;75.70;;;;;;4974335;28;20378;-63
2021/06/18 02:06:42;;;;;;;;;;;20.30;75.90;;;;;;4990891;28;19925;-63
2021/06/18 02:09:08;;;;;;;;;;;20.30;76.00;;;;;;4991546;28;19940;-63
2021/06/18 02:11:35;;;;;;;;;;;20.30;76.20;;;;;;4991759;28;19924;-63
2021/06/18 02:14:01;;;;;;;;;;;20.30;76.30;;;;;;4989812;28;19981;-62
2021/06/18 02:16:28;;;;;;;;;;;20.30;76.40;;;;;;4990291;28;20279;-62
2021/06/18 02:18:54;;;;;;;;;;;20.20;76.60;;;;;;4973596;28;19928;-62
2021/06/18 02:21:20;;;;;;;;;;;20.20;76.80;;;;;;4991504;28;19925;-63
2021/06/18 02:23:46;;;;;;;;;;;20.10;77.00;;;;;;4991536;28;19918;-63
2021/06/18 02:26:11;;;;;;;;;;;20.10;77.20;;;;;;4990989;28;19930;-63
2021/06/18 02:28:37;;;;;;;;;;;20.10;77.40;;;;;;4991214;28;19925;-63
2021/06/18 02:31:03;;;;;;;;;;;20.10;77.50;;;;;;4990174;28;19918;-63
2021/06/18 02:33:29;;;;;;;;;;;20.10;77.70;;;;;;4989691;28;19941;-63
2021/06/18 02:35:55;;;;;;;;;;;20.10;77.80;;;;;;5006294;28;19996;-63
2021/06/18 02:38:20;;;;;;;;;;;20.10;78.00;;;;;;4995850;28;19922;-62
2021/06/18 02:40:46;;;;;;;;;;;20.10;78.10;;;;;;5014667;28;19924;-63
2021/06/18 02:43:12;;;;;;;;;;;20.10;78.20;;;;;;5014372;28;19921;-63
2021/06/18 02:45:38;;;;;;;;;;;20.10;78.20;;;;;;5012751;28;20333;-63
2021/06/18 02:48:11;;;;;;;;;;;20.10;78.20;;;;;;5014086;28;19925;-63
2021/06/18 02:50:48;;;;;;;;;;;20.10;78.30;;;;;;5011726;28;20436;-63
2021/06/18 02:53:14;;;;;;;;;;;20.10;78.50;;;;;;5014220;28;19918;-63
2021/06/18 02:55:53;;;;;;;;;;;20.00;78.60;;;;;;4996305;28;20164;-62
2021/06/18 02:58:24;;;;;;;;;;;20.00;78.80;;;;;;4996141;28;19922;-62
2021/06/18 03:00:51;;;;;;;;;;;20.00;78.90;;;;;;5013613;28;19925;-63
2021/06/18 03:03:22;;;;;;;;;;;20.00;79.00;;;;;;5013914;28;20286;-63
2021/06/18 03:05:49;;;;;;;;;;;20.00;79.10;;;;;;5013554;28;19964;-63
2021/06/18 03:08:15;;;;;;;;;;;20.00;79.20;;;;;;4996073;28;19992;-63
2021/06/18 03:10:41;;;;;;;;;;;20.00;79.40;;;;;;5013886;28;19925;-63
2021/06/18 03:13:11;;;;;;;;;;;20.00;79.50;;;;;;4995917;28;19944;-63
2021/06/18 03:15:40;;;;;;;;;;;20.00;79.60;;;;;;5013793;28;19924;-63
2021/06/18 03:18:07;;;;;;;;;;;20.00;79.70;;;;;;4995712;28;19968;-63
2021/06/18 03:20:34;;;;;;;;;;;20.10;79.80;;;;;;5013798;28;19918;-63
2021/06/18 03:23:01;;;;;;;;;;;20.10;79.80;;;;;;5013664;28;20377;-63
2021/06/18 03:25:28;;;;;;;;;;;20.10;79.80;;;;;;5013154;28;19925;-63
2021/06/18 03:27:55;;;;;;;;;;;20.10;79.90;;;;;;4995739;28;20000;-63
2021/06/18 03:30:21;;;;;;;;;;;20.10;80.00;;;;;;4995620;28;19921;-63
2021/06/18 03:32:48;;;;;;;;;;;20.10;80.00;;;;;;4996255;28;19917;-65
2021/06/18 03:35:14;;;;;;;;;;;20.10;80.50;;;;;;4995817;28;19917;-64
2021/06/18 03:37:40;;;;;;;;;;;20.10;80.00;;;;;;4995147;28;19917;-64
2021/06/18 03:40:06;;;;;;;;;;;20.10;80.10;;;;;;4995711;28;19918;-64
2021/06/18 03:42:32;;;;;;;;;;;20.20;80.10;;;;;;4995600;28;20004;-64
2021/06/18 03:44:58;;;;;;;;;;;20.20;80.20;;;;;;4994707;28;20028;-64
2021/06/18 03:47:25;;;;;;;;;;;20.30;80.40;;;;;;4979133;28;19922;-65
2021/06/18 03:49:51;;;;;;;;;;;20.30;80.50;;;;;;4995140;28;19921;-64
2021/06/18 03:52:18;;;;;;;;;;;20.40;80.50;;;;;;4995538;28;20374;-65
2021/06/18 03:54:43;;;;;;;;;;;20.40;80.40;;;;;;4995462;28;19929;-65
2021/06/18 03:57:12;;;;;;;;;;;20.50;80.40;;;;;;4994873;28;19918;-65
2021/06/18 03:59:40;;;;;;;;;;;20.50;80.40;;;;;;5012894;28;19924;-65
2021/06/18 04:02:06;;;;;;;;;;;20.50;80.30;;;;;;5012481;28;19924;-65
2021/06/18 04:04:32;;;;;;;;;;;20.60;80.30;;;;;;4995408;28;19925;-64
2021/06/18 04:06:59;;;;;;;;;;;20.60;80.70;;;;;;5012427;28;20223;-64
2021/06/18 04:09:25;;;;;;;;;;;20.60;80.20;;;;;;5012321;28;19921;-64
2021/06/18 04:11:51;;;;;;;;;;;20.70;80.20;;;;;;5012680;28;19983;-65
2021/06/18 04:14:16;;;;;;;;;;;20.70;80.20;;;;;;5012609;28;20370;-64
2021/06/18 04:16:42;;;;;;;;;;;20.80;80.10;;;;;;5012074;28;19917;-65
2021/06/18 04:19:09;;;;;;;;;;;20.80;80.00;;;;;;5012587;28;19918;-64
2021/06/18 04:21:39;;;;;;;;;;;20.90;80.00;;;;;;5012106;28;19953;-64
2021/06/18 04:24:05;;;;;;;;;;;20.90;80.00;;;;;;4994884;28;20020;-64
2021/06/18 04:26:31;;;;;;;;;;;21.00;80.10;;;;;;4995010;28;20346;-64
2021/06/18 04:28:56;;;;;;;;;;;21.10;80.10;;;;;;4994049;28;20081;-64
2021/06/18 04:31:22;;;;;;;;;;;21.10;80.10;;;;;;4994943;28;19917;-64
2021/06/18 04:33:48;;;;;;;;;;;21.20;79.90;;;;;;5011782;28;19972;-64
2021/06/18 04:36:13;;;;;;;;;;;21.30;79.80;;;;;;4994842;28;19950;-64
2021/06/18 04:38:39;;;;;;;;;;;21.30;79.70;;;;;;5011961;28;19980;-64
2021/06/18 04:41:05;;;;;;;;;;;21.40;79.70;;;;;;5011196;28;20401;-64
2021/06/18 04:43:31;;;;;;;;;;;21.50;79.60;;;;;;4999478;28;20035;-64
2021/06/18 04:45:56;;;;;;;;;;;21.50;79.40;;;;;;5031771;28;19971;-64
2021/06/18 04:48:22;;;;;;;;;;;21.60;79.30;;;;;;5030860;28;19924;-64
2021/06/18 04:50:48;;;;;;;;;;;21.70;79.30;;;;;;5031079;28;20301;-64
2021/06/18 04:53:14;;;;;;;;;;;21.70;79.10;;;;;;5031451;28;20395;-64
2021/06/18 04:55:41;;;;;;;;;;;21.80;79.10;;;;;;5014041;28;19979;-64
2021/06/18 04:58:08;;;;;;;;;;;21.90;79.00;;;;;;5029381;28;20374;-65
2021/06/18 05:00:34;;;;;;;;;;;22.00;78.80;;;;;;5031156;28;19935;-64
2021/06/18 05:03:00;;;;;;;;;;;22.20;78.60;;;;;;5013570;28;19917;-64
2021/06/18 05:05:25;;;;;;;;;;;22.30;78.40;;;;;;5031447;28;19917;-64
2021/06/18 05:07:52;;;;;;;;;;;22.40;78.10;;;;;;5030863;28;19932;-64
2021/06/18 05:10:17;;;;;;;;;;;22.40;77.80;;;;;;5031422;28;19917;-64
2021/06/18 05:12:43;;;;;;;;;;;22.60;77.50;;;;;;5030955;28;19918;-64
2021/06/18 05:15:09;;;;;;;;;;;22.60;77.40;;;;;;5031211;28;19917;-64
2021/06/18 05:17:35;;;;;;;;;;;22.80;77.10;;;;;;5031293;28;19917;-64
2021/06/18 05:20:00;;;;;;;;;;;22.90;76.90;;;;;;5029590;28;19956;-64
2021/06/18 05:22:26;;;;;;;;;;;23.00;76.50;;;;;;5031424;28;20320;-64
2021/06/18 05:24:51;;;;;;;;;;;23.10;76.10;;;;;;5030091;28;19944;-64
2021/06/18 05:27:17;;;;;;;;;;;23.20;76.00;;;;;;5030476;28;20679;-64
2021/06/18 05:29:42;;;;;;;;;;;23.40;75.60;;;;;;5030045;28;19921;-64
2021/06/18 05:32:08;;;;;;;;;;;23.60;75.00;;;;;;5013172;28;19924;-64
2021/06/18 05:34:34;;;;;;;;;;;23.70;74.60;;;;;;5012861;28;19940;-64
2021/06/18 05:36:59;;;;;;;;;;;23.90;74.20;;;;;;5030091;28;19960;-64
2021/06/18 05:39:25;;;;;;;;;;;24.10;73.70;;;;;;4996278;28;19975;-64
2021/06/18 05:41:50;;;;;;;;;;;24.30;73.20;;;;;;5009474;28;19933;-64
2021/06/18 05:44:16;;;;;;;;;;;24.70;73.50;;;;;;5004579;28;20025;-64
2021/06/18 05:46:41;;;;;;;;;;;25.70;76.60;;;;;;4992302;28;20392;-65
2021/06/18 05:49:07;;;;;;;;;;;26.70;76.10;;;;;;5011272;28;19918;-66
2021/06/18 05:51:32;;;;;;;;;;;27.60;74.50;;;;;;5010934;28;19923;-66
2021/06/18 05:53:58;;;;;;;;;;;28.20;72.20;;;;;;4993688;28;19921;-67
2021/06/18 05:56:23;;;;;;;;;;;28.80;70.40;;;;;;4993374;28;19921;-67
2021/06/18 05:58:49;;;;;;;;;;;29.10;67.90;;;;;;5003139;28;19925;-67
2021/06/18 06:01:15;;;;;;;;;;;29.50;67.30;;;;;;5000764;28;20008;-67
2021/06/18 06:03:41;;;;;;;;;;;30.50;67.70;;;;;;5005766;28;19921;-67
2021/06/18 06:06:08;;;;;;;;;;;31.50;66.40;;;;;;5010970;28;19922;-67
2021/06/18 06:08:35;;;;;;;;;;;32.50;64.40;;;;;;5003651;28;20457;-67
2021/06/18 06:11:00;;;;;;;;;;;33.30;61.90;;;;;;4994404;28;19920;-67
2021/06/18 06:13:26;;;;;;;;;;;34.10;59.80;;;;;;5014718;28;19917;-67
2021/06/18 06:15:52;;;;;;;;;;;34.70;57.20;;;;;;5013451;28;19918;-67
2021/06/18 06:18:17;;;;;;;;;;;35.30;55.00;;;;;;5013861;28;19917;-67
2021/06/18 06:20:44;;;;;;;;;;;35.90;52.90;;;;;;5010901;28;19991;-67
2021/06/18 06:23:10;;;;;;;;;;;36.40;51.20;;;;;;5009988;28;19925;-66
2021/06/18 06:25:35;;;;;;;;;;;36.80;49.50;;;;;;5014448;28;19917;-67
2021/06/18 06:28:01;;;;;;;;;;;37.30;48.00;;;;;;5013095;28;19979;-67
2021/06/18 06:30:26;;;;;;;;;;;37.70;47.00;;;;;;5012899;28;19925;-67
2021/06/18 06:32:52;;;;;;;;;;;38.20;45.30;;;;;;5014241;28;20048;-67
2021/06/18 06:35:18;;;;;;;;;;;38.50;43.60;;;;;;5014510;28;19972;-67
2021/06/18 06:37:43;;;;;;;;;;;38.90;42.60;;;;;;5013831;28;19922;-67
2021/06/18 06:40:13;;;;;;;;;;;39.30;41.90;;;;;;5013249;28;19922;-67
2021/06/18 06:42:38;;;;;;;;;;;39.70;41.20;;;;;;5012616;28;19917;-67
2021/06/18 06:45:05;;;;;;;;;;;40.00;40.20;;;;;;5013564;28;19924;-67
2021/06/18 06:47:30;;;;;;;;;;;40.50;39.50;;;;;;5013746;28;19921;-67
2021/06/18 06:49:56;;;;;;;;;;;40.90;38.50;;;;;;5012707;28;19917;-67
2021/06/18 06:52:21;;;;;;;;;;;41.20;37.20;;;;;;5014057;28;19944;-67
2021/06/18 06:54:47;;;;;;;;;;;41.30;35.40;;;;;;5013725;28;19921;-67
2021/06/18 06:57:15;;;;;;;;;;;41.30;34.60;;;;;;5013861;28;19917;-67
2021/06/18 06:59:41;;;;;;;;;;;41.50;34.10;;;;;;5014137;28;19939;-67
2021/06/18 07:02:07;;;;;;;;;;;41.90;34.00;;;;;;5013412;28;19992;-67
2021/06/18 07:04:33;;;;;;;;;;;42.30;33.30;;;;;;5014281;28;19937;-67
2021/06/18 07:06:58;;;;;;;;;;;42.80;32.90;;;;;;5013557;28;20389;-68
2021/06/18 07:09:24;;;;;;;;;;;43.30;32.20;;;;;;5013503;28;19918;-67
2021/06/18 07:11:49;;;;;;;;;;;43.70;31.50;;;;;;5013695;28;19933;-67
2021/06/18 07:14:15;;;;;;;;;;;44.00;31.30;;;;;;5013311;28;20386;-67
2021/06/18 07:16:41;;;;;;;;;;;44.50;30.70;;;;;;5012011;28;20163;-67
2021/06/18 07:19:06;;;;;;;;;;;44.80;29.90;;;;;;4994858;28;20354;-67
2021/06/18 07:21:32;;;;;;;;;;;45.30;29.40;;;;;;5011859;28;19925;-68
2021/06/18 07:23:58;;;;;;;;;;;45.60;29.00;;;;;;5012759;28;19948;-68
2021/06/18 07:26:23;;;;;;;;;;;45.90;28.50;;;;;;4994894;28;19952;-67
2021/06/18 07:28:49;;;;;;;;;;;46.00;28.10;;;;;;5009754;28;19956;-67
2021/06/18 07:31:15;;;;;;;;;;;46.20;27.80;;;;;;5008515;28;19929;-67
2021/06/18 07:33:40;;;;;;;;;;;46.40;27.70;;;;;;5010043;28;19936;-67
2021/06/18 07:36:06;;;;;;;;;;;46.80;27.60;;;;;;5012919;28;20421;-67
2021/06/18 07:38:32;;;;;;;;;;;47.30;27.60;;;;;;5012460;28;19921;-67
2021/06/18 07:40:57;;;;;;;;;;;47.60;27.20;;;;;;5012376;28;19917;-67
2021/06/18 07:43:23;;;;;;;;;;;48.00;26.70;;;;;;5012810;28;19917;-67
2021/06/18 07:45:49;;;;;;;;;;;48.20;26.30;;;;;;5012722;28;20081;-67
2021/06/18 07:48:15;;;;;;;;;;;48.20;26.10;;;;;;5012246;28;19921;-68
2021/06/18 07:50:41;;;;;;;;;;;48.40;26.00;;;;;;5012727;28;19921;-66
2021/06/18 07:53:07;;;;;;;;;;;48.70;25.90;;;;;;5012252;28;19918;-67
2021/06/18 07:55:33;;;;;;;;;;;49.10;25.70;;;;;;5008206;28;19925;-66
2021/06/18 07:57:59;;;;;;;;;;;49.50;25.50;;;;;;5007077;28;19940;-66
2021/06/18 08:00:24;;;;;;;;;;;49.80;25.30;;;;;;5009086;28;20004;-67
2021/06/18 08:02:50;;;;;;;;;;;50.10;25.20;;;;;;5010899;28;20279;-66
2021/06/18 08:05:17;;;;;;;;;;;50.40;25.10;;;;;;5012382;28;19917;-66
2021/06/18 08:07:44;;;;;;;;;;;50.80;25.10;;;;;;5009360;28;20301;-66
2021/06/18 08:10:12;;;;;;;;;;;51.10;25.00;;;;;;5012322;28;20398;-66
2021/06/18 08:12:38;;;;;;;;;;;51.40;24.70;;;;;;5018648;28;20008;-67
2021/06/18 08:15:04;;;;;;;;;;;51.70;24.80;;;;;;5012254;28;19925;-67
2021/06/18 08:17:30;;;;;;;;;;;51.90;24.90;;;;;;5011975;28;20035;-67
2021/06/18 08:19:56;;;;;;;;;;;52.00;24.50;;;;;;5011949;28;19948;-66
2021/06/18 08:22:21;;;;;;;;;;;52.20;24.30;;;;;;5012210;28;20289;-66
2021/06/18 08:24:48;;;;;;;;;;;52.50;24.20;;;;;;5011882;28;20285;-66
2021/06/18 08:27:14;;;;;;;;;;;52.70;23.90;;;;;;5011818;28;19922;-66
2021/06/18 08:29:39;;;;;;;;;;;52.80;23.60;;;;;;5012098;28;19917;-66
2021/06/18 08:32:05;;;;;;;;;;;52.90;23.30;;;;;;5011541;28;19917;-66
2021/06/18 08:34:31;;;;;;;;;;;53.20;23.40;;;;;;5011959;28;19975;-67
2021/06/18 08:36:56;;;;;;;;;;;53.50;23.20;;;;;;5011775;28;19922;-67
2021/06/18 08:39:22;;;;;;;;;;;53.70;22.90;;;;;;5011515;28;19924;-67
2021/06/18 08:41:48;;;;;;;;;;;54.00;22.90;;;;;;5011944;28;19924;-67
2021/06/18 08:44:15;;;;;;;;;;;54.30;22.80;;;;;;5006888;28;19918;-67
2021/06/18 08:46:41;;;;;;;;;;;54.50;22.40;;;;;;5011487;28;19925;-67
2021/06/18 08:49:07;;;;;;;;;;;54.70;22.50;;;;;;5011565;28;19925;-67
2021/06/18 08:51:32;;;;;;;;;;;55.00;22.40;;;;;;5011208;28;19924;-67
2021/06/18 08:53:58;;;;;;;;;;;55.10;22.30;;;;;;5011657;28;19918;-67
2021/06/18 08:56:24;;;;;;;;;;;55.20;22.50;;;;;;5011596;28;19967;-67
2021/06/18 08:58:49;;;;;;;;;;;55.50;22.40;;;;;;5010810;28;20009;-67
2021/06/18 09:01:15;;;;;;;;;;;55.60;22.10;;;;;;5010237;28;20377;-66
2021/06/18 09:03:42;;;;;;;;;;;55.60;22.00;;;;;;5011057;28;19928;-67
2021/06/18 09:06:17;;;;;;;;;;;55.80;22.00;;;;;;4994086;28;19928;-66
2021/06/18 09:08:43;;;;;;;;;;;55.90;21.90;;;;;;4995563;28;20370;-67
2021/06/18 09:11:09;;;;;;;;;;;56.10;21.90;;;;;;5010498;28;19917;-67
2021/06/18 09:13:34;;;;;;;;;;;56.20;21.80;;;;;;5010031;28;19917;-67
2021/06/18 09:16:00;;;;;;;;;;;56.30;21.80;;;;;;4989812;28;19971;-67
2021/06/18 09:18:32;;;;;;;;;;;56.50;21.70;;;;;;5010614;28;19924;-67
2021/06/18 09:21:10;;;;;;;;;;;56.60;21.60;;;;;;4993595;28;20008;-67
2021/06/18 09:23:35;;;;;;;;;;;56.70;21.40;;;;;;5010933;28;20435;-67
2021/06/18 09:26:16;;;;;;;;;;;56.60;21.30;;;;;;5010999;28;19922;-67
2021/06/18 09:29:00;;;;;;;;;;;56.70;21.30;;;;;;4995016;28;19961;-67
2021/06/18 09:31:27;;;;;;;;;;;57.20;21.50;;;;;;5011389;28;19972;-67
2021/06/18 09:33:53;;;;;;;;;;;57.50;21.50;;;;;;4993426;28;19928;-73
2021/06/18 09:36:19;;;;;;;;;;;57.40;21.10;;;;;;4993342;28;19940;-73
2021/06/18 09:38:50;;;;;;;;;;;57.30;21.10;;;;;;5010425;28;20374;-73
2021/06/18 09:41:34;;;;;;;;;;;57.40;21.10;;;;;;5011029;28;20370;-73
2021/06/18 09:44:00;;;;;;;;;;;57.40;20.90;;;;;;4995631;28;19925;-73
2021/06/18 09:46:40;;;;;;;;;;;57.50;21.00;;;;;;5015035;28;20043;-74
2021/06/18 09:49:05;;;;;;;;;;;57.70;20.90;;;;;;4996946;28;19971;-73
2021/06/18 09:51:31;;;;;;;;;;;58.00;21.00;;;;;;5015020;28;20360;-74
2021/06/18 09:53:56;;;;;;;;;;;58.00;20.90;;;;;;5014369;28;20389;-72
2021/06/18 09:56:22;;;;;;;;;;;58.10;20.80;;;;;;5015009;28;19924;-74
2021/06/18 09:58:48;;;;;;;;;;;57.80;20.70;;;;;;4997032;28;19921;-69
2021/06/18 10:01:20;;;;;;;;;;;57.90;20.80;;;;;;5014408;28;20366;-69
2021/06/18 10:03:57;;;;;;;;;;;57.50;20.50;;;;;;5003577;28;19918;-67
2021/06/18 10:06:24;;;;;;;;;;;57.20;20.70;;;;;;5016521;28;19926;-68
2021/06/18 10:08:50;;;;;;;;;;;57.40;20.60;;;;;;5002977;28;19925;-68
2021/06/18 10:11:16;;;;;;;;;;;57.80;20.80;;;;;;4990701;28;20384;-67
2021/06/18 10:13:42;;;;;;;;;;;58.30;20.90;;;;;;5001680;28;19926;-68
2021/06/18 10:16:08;;;;;;;;;;;58.80;20.90;;;;;;5007164;28;20337;-68
2021/06/18 10:18:33;;;;;;;;;;;59.40;20.90;;;;;;5003579;28;19941;-68
2021/06/18 10:21:01;;;;;;;;;;;59.50;21.00;;;;;;5002248;28;19917;-68
2021/06/18 10:23:27;;;;;;;;;;;59.60;20.80;;;;;;4999612;28;20370;-68
2021/06/18 10:25:58;;;;;;;;;;;59.60;20.70;;;;;;5002812;28;19940;-68
2021/06/18 10:28:28;;;;;;;;;;;59.50;20.60;;;;;;4984284;28;19924;-68
2021/06/18 10:30:55;;;;;;;;;;;59.60;20.80;;;;;;5004206;28;20332;-68
2021/06/18 10:33:29;;;;;;;;;;;59.70;20.70;;;;;;4986026;28;20393;-68
2021/06/18 10:36:06;;;;;;;;;;;59.70;20.70;;;;;;5007122;28;20305;-68
2021/06/18 10:38:36;;;;;;;;;;;59.80;20.90;;;;;;4985885;28;20318;-67
2021/06/18 10:41:03;;;;;;;;;;;59.90;20.80;;;;;;5004983;28;19957;-68
2021/06/18 10:43:37;;;;;;;;;;;60.00;20.80;;;;;;5001180;28;19917;-67
2021/06/18 10:46:04;;;;;;;;;;;60.10;20.90;;;;;;4999065;28;20021;-67
2021/06/18 10:48:45;;;;;;;;;;;60.10;20.90;;;;;;4983180;28;20402;-68
2021/06/18 10:51:26;;;;;;;;;;;60.00;20.90;;;;;;4999012;28;19932;-68
2021/06/18 10:54:15;;;;;;;;;;;59.80;20.70;;;;;;5002561;28;19918;-67
2021/06/18 10:56:47;;;;;;;;;;;59.70;20.70;;;;;;4993330;28;19922;-68
2021/06/18 10:59:13;;;;;;;;;;;59.70;20.60;;;;;;5006053;28;19928;-68
2021/06/18 11:01:40;;;;;;;;;;;59.50;20.60;;;;;;4990706;28;20405;-68
2021/06/18 11:04:07;;;;;;;;;;;59.20;20.60;;;;;;5009218;28;19925;-67
2021/06/18 11:06:42;;;;;;;;;;;59.20;20.80;;;;;;5013356;28;20059;-67
2021/06/18 11:09:08;;;;;;;;;;;59.30;20.80;;;;;;5008730;28;20006;-68
2021/06/18 11:11:34;;;;;;;;;;;59.30;20.70;;;;;;5018137;28;19948;-68
2021/06/18 11:14:07;;;;;;;;;;;59.30;20.80;;;;;;5010888;28;20016;-68
2021/06/18 11:16:33;;;;;;;;;;;59.10;21.00;;;;;;5011194;28;19921;-67
2021/06/18 11:19:17;;;;;;;;;;;58.90;21.20;;;;;;5011938;28;19924;-68
2021/06/18 11:21:43;;;;;;;;;;;58.80;21.40;;;;;;4993084;28;20018;-67
2021/06/18 11:24:09;;;;;;;;;;;58.90;21.50;;;;;;5012323;28;19953;-67
2021/06/18 11:26:35;;;;;;;;;;;59.00;21.50;;;;;;5011124;28;19972;-68
2021/06/18 11:29:00;;;;;;;;;;;58.80;21.40;;;;;;4995645;28;19918;-67
2021/06/18 11:31:35;;;;;;;;;;;58.40;21.50;;;;;;5013186;28;19948;-67
2021/06/18 11:34:01;;;;;;;;;;;57.10;21.40;;;;;;5005827;28;19973;-67
2021/06/18 11:36:33;;;;;;;;;;;54.60;21.40;;;;;;5002251;28;19957;-66
2021/06/18 11:39:08;;;;;;;;;;;51.80;22.20;;;;;;5000874;28;20314;-66
2021/06/18 11:41:39;;;;;;;;;;;49.60;23.10;;;;;;5007068;28;19980;-67
2021/06/18 11:44:05;;;;;;;;;;;48.10;23.70;;;;;;5010465;28;19941;-66
2021/06/18 11:46:32;;;;;;;;;;;46.80;24.10;;;;;;5004855;28;19956;-66
2021/06/18 11:49:11;;;;;;;;;;;45.80;24.60;;;;;;5000853;28;19982;-66
2021/06/18 11:51:36;;;;;;;;;;;45.20;25.00;;;;;;5005537;28;19925;-66
2021/06/18 11:54:02;;;;;;;;;;;45.10;25.00;;;;;;5011605;28;19917;-65
2021/06/18 11:56:29;;;;;;;;;;;45.20;25.10;;;;;;5019755;28;19947;-65
2021/06/18 11:58:55;;;;;;;;;;;45.50;25.50;;;;;;4988255;28;19918;-66
2021/06/18 12:01:24;;;;;;;;;;;46.00;25.70;;;;;;4999598;28;19924;-65
2021/06/18 12:03:51;;;;;;;;;;;46.20;25.40;;;;;;4979029;28;19936;-67
2021/06/18 12:06:17;;;;;;;;;;;46.20;25.60;;;;;;4989939;28;19933;-66
2021/06/18 12:09:02;;;;;;;;;;;46.20;25.40;;;;;;4989005;28;20093;-65
2021/06/18 12:11:29;;;;;;;;;;;45.90;25.30;;;;;;5008420;28;20004;-65
2021/06/18 12:13:55;;;;;;;;;;;45.30;25.50;;;;;;4992398;28;19926;-63
2021/06/18 12:16:31;;;;;;;;;;;44.40;25.80;;;;;;4974911;28;19925;-64
2021/06/18 12:19:15;;;;;;;;;;;43.70;26.30;;;;;;4999536;28;19995;-64
2021/06/18 12:21:41;;;;;;;;;;;43.20;27.00;;;;;;5008836;28;19929;-64
2021/06/18 12:24:07;;;;;;;;;;;43.00;27.10;;;;;;5006201;28;20400;-65
2021/06/18 12:26:33;;;;;;;;;;;42.70;27.10;;;;;;5011791;28;19921;-64
2021/06/18 12:29:02;;;;;;;;;;;42.40;26.70;;;;;;5010846;28;19918;-67
2021/06/18 12:31:28;;;;;;;;;;;42.20;26.60;;;;;;5010905;28;20386;-64
2021/06/18 12:33:53;;;;;;;;;;;41.90;26.60;;;;;;5011492;28;19921;-64
2021/06/18 12:36:19;;;;;;;;;;;41.60;26.80;;;;;;4997254;28;19921;-63
2021/06/18 12:38:46;;;;;;;;;;;41.30;26.80;;;;;;5011406;28;19967;-64
2021/06/18 12:41:22;;;;;;;;;;;40.80;27.10;;;;;;5004477;28;19924;-64
2021/06/18 12:43:57;;;;;;;;;;;40.40;27.40;;;;;;5011854;28;20461;-64
2021/06/18 12:46:22;;;;;;;;;;;40.00;27.50;;;;;;5010955;28;19921;-66
2021/06/18 12:48:49;;;;;;;;;;;39.60;27.70;;;;;;5007084;28;19931;-66
2021/06/18 12:51:18;;;;;;;;;;;39.40;28.20;;;;;;5005147;28;19917;-64
2021/06/18 12:53:43;;;;;;;;;;;39.20;28.30;;;;;;5011794;28;19996;-64
2021/06/18 12:56:13;;;;;;;;;;;39.00;28.50;;;;;;4988285;28;20522;-64
2021/06/18 12:58:40;;;;;;;;;;;38.80;28.70;;;;;;4997024;28;19918;-65
2021/06/18 13:01:09;;;;;;;;;;;38.70;28.90;;;;;;4983656;28;19917;-64
2021/06/18 13:03:43;;;;;;;;;;;38.50;29.10;;;;;;4999425;28;19972;-65
2021/06/18 13:06:10;;;;;;;;;;;38.40;29.30;;;;;;4999585;28;20266;-64
2021/06/18 13:08:46;;;;;;;;;;;38.30;29.70;;;;;;5000154;28;20004;-64
2021/06/18 13:11:25;;;;;;;;;;;38.20;30.00;;;;;;5008963;28;19987;-63
2021/06/18 13:14:07;;;;;;;;;;;38.10;30.30;;;;;;4990785;28;19960;-64
2021/06/18 13:16:33;;;;;;;;;;;37.90;30.20;;;;;;5005645;28;20451;-63
2021/06/18 13:18:59;;;;;;;;;;;37.70;30.40;;;;;;4998839;28;19918;-65
2021/06/18 13:21:26;;;;;;;;;;;37.60;31.00;;;;;;5007284;28;19976;-65
2021/06/18 13:24:08;;;;;;;;;;;37.40;31.30;;;;;;5008882;28;19937;-67
2021/06/18 13:26:34;;;;;;;;;;;37.40;31.60;;;;;;5015177;28;19961;-65
2021/06/18 13:29:08;;;;;;;;;;;37.50;31.80;;;;;;5014294;28;19972;-65
2021/06/18 13:31:34;;;;;;;;;;;37.60;31.60;;;;;;5018188;28;19918;-65
2021/06/18 13:33:59;;;;;;;;;;;37.60;31.50;;;;;;5002245;28;19968;-65
2021/06/18 13:36:35;;;;;;;;;;;37.60;31.60;;;;;;5009769;28;19925;-66
2021/06/18 13:39:08;;;;;;;;;;;37.40;31.50;;;;;;5008676;28;20374;-65
2021/06/18 13:41:35;;;;;;;;;;;37.30;31.60;;;;;;5009174;28;19928;-65
2021/06/18 13:44:00;;;;;;;;;;;37.30;32.00;;;;;;5018257;28;19948;-65
2021/06/18 13:46:27;;;;;;;;;;;37.40;32.20;;;;;;4999675;28;21593;-65
2021/06/18 13:48:54;;;;;;;;;;;37.30;32.20;;;;;;5020959;28;20008;-65
2021/06/18 13:51:19;;;;;;;;;;;37.30;32.30;;;;;;5021574;28;19918;-65
2021/06/18 13:53:45;;;;;;;;;;;37.10;32.40;;;;;;5002797;28;19926;-65
2021/06/18 13:56:10;;;;;;;;;;;36.80;32.50;;;;;;5001632;28;19953;-64
2021/06/18 13:58:36;;;;;;;;;;;36.60;32.90;;;;;;5019316;28;19921;-66
2021/06/18 14:01:01;;;;;;;;;;;36.60;33.20;;;;;;5020071;28;20004;-65
2021/06/18 14:03:27;;;;;;;;;;;36.70;33.20;;;;;;5002473;28;19929;-65
2021/06/18 14:05:52;;;;;;;;;;;36.90;33.30;;;;;;5019519;28;19918;-65
2021/06/18 14:08:18;;;;;;;;;;;37.00;33.50;;;;;;5018214;28;19926;-66
2021/06/18 14:10:43;;;;;;;;;;;37.20;33.80;;;;;;5001160;28;19924;-65
2021/06/18 14:13:09;;;;;;;;;;;37.30;34.00;;;;;;5019905;28;19917;-65
2021/06/18 14:15:38;;;;;;;;;;;37.30;33.80;;;;;;5019992;28;19925;-64
2021/06/18 14:18:06;;;;;;;;;;;37.30;33.90;;;;;;5000758;28;19917;-65